Portada
METAR-TAF:

METAR-TAF

Aeroports :

Algesires, Espanya

latitud: 36-07-44N, longitud: 05-26-28W, altitud: 30 m

Observació

L'informe es va fer fa 41 minuts, a les 21:00 UTC
Vent 11 kt del Oest/Nord-Oest amb ràfegues de 22 kt, variant entre Oest/Sud-Oest i Nord/Nord-Oest
Temperatura 13°C
Humitat 62%
Pressió 1021 hPa
Visibilitat 10 km o més
Núvols disperses a una alçada de 4700 ft

METAR: LEAG 222100Z AUTO 29011G22KT 240V340 9999 SCT047 13/06 Q1021

Hora: 22:41 (21:41 UTC)


TAF: manca

Observacions i pronòstics meteorològics de més de 4000 aeroports (METAR i TAF).

Les estacions disponibles són els punts grocs i vermells al mapa.

Posi el ratolí al punt desitjat per veure el nom de l'estació.

Feu clic per veure les observacions i els pronòstics meteorològics.

Per canviar el mapa: feu clic els botons verds amb una creu de color negre per apropar; al botó verd amb un guió per allunyar la imatge; o en les fletxes verdes per a mapes adjacents.


METAR-TAF: